Terminal Aerodrome Forecast
Issued by NWS

Home | Current Version | Previous Version | Text Only | Print | Product List | Glossary On
Versions: 1 2 3 4 5 6 7 8 9 10 11 12 13 14 15 16 17 18 19 20 21 22
062
FTPA31 PHFO 301234 AAA
TAFHMK
TAF AMD
PHMK 301234Z 3013/0112 36008KT P6SM VCSH SCT015 BKN040
      TEMPO 3013/3014 33012G20KT 2SM +SHRA BR SCT005 BKN014 OVC025
     FM302000 VRB06G14KT P6SM VCSH SCT015 BKN040
     FM010600 10008KT P6SM VCSH SCT020 BKN045=

USA.gov is the U.S. government's official web portal to all federal, state and local government web resources and services.